createdAt,value
2022-08-30T00:01:26.663Z,19.54
2022-08-30T00:03:56.109Z,19.54
2022-08-30T00:06:24.609Z,19.51
2022-08-30T00:08:53.074Z,19.48
2022-08-30T00:11:24.675Z,19.41
2022-08-30T00:13:53.973Z,19.39
2022-08-30T00:16:23.423Z,19.33
2022-08-30T00:18:52.065Z,19.35
2022-08-30T00:21:20.394Z,19.38
2022-08-30T00:23:48.338Z,19.37
2022-08-30T00:26:16.179Z,19.40
2022-08-30T00:28:45.571Z,19.42
2022-08-30T00:31:15.421Z,19.43
2022-08-30T00:33:43.827Z,19.42
2022-08-30T00:36:11.774Z,19.41
2022-08-30T00:38:39.688Z,19.32
2022-08-30T00:41:07.830Z,19.32
2022-08-30T00:43:37.142Z,19.27
2022-08-30T00:46:08.711Z,19.19
2022-08-30T00:48:41.048Z,19.23
2022-08-30T00:51:12.899Z,19.27
2022-08-30T00:53:45.263Z,19.25
2022-08-30T00:56:13.892Z,19.29
2022-08-30T00:58:45.526Z,19.30
2022-08-30T01:01:15.221Z,19.32
2022-08-30T01:03:44.838Z,19.34
2022-08-30T01:06:15.227Z,19.32
2022-08-30T01:08:43.432Z,19.30
2022-08-30T01:11:12.427Z,19.31
2022-08-30T01:13:40.786Z,19.28
2022-08-30T01:16:09.650Z,19.30
2022-08-30T01:18:39.906Z,19.31
2022-08-30T01:21:16.421Z,19.31
2022-08-30T01:23:47.955Z,19.28
2022-08-30T01:26:17.432Z,19.30
2022-08-30T01:28:51.592Z,19.31
2022-08-30T01:31:19.865Z,19.28
2022-08-30T01:33:51.126Z,19.15
2022-08-30T01:36:23.085Z,19.11
2022-08-30T01:38:54.786Z,19.09
2022-08-30T01:41:25.273Z,19.05
2022-08-30T01:43:57.004Z,19.05
2022-08-30T01:46:28.777Z,18.97
2022-08-30T01:48:59.207Z,18.93
2022-08-30T01:51:29.572Z,18.92
2022-08-30T01:53:59.379Z,18.85
2022-08-30T01:56:29.463Z,18.87
2022-08-30T01:59:02.581Z,18.91
2022-08-30T02:01:32.859Z,18.93
2022-08-30T02:04:01.319Z,18.94
2022-08-30T02:06:29.847Z,18.79
2022-08-30T02:08:59.263Z,18.75
2022-08-30T02:11:30.083Z,18.78
2022-08-30T02:13:58.047Z,18.78
2022-08-30T02:16:26.880Z,18.78
2022-08-30T02:18:56.276Z,18.80
2022-08-30T02:21:24.832Z,18.73
2022-08-30T02:23:53.320Z,18.72
2022-08-30T02:26:23.256Z,18.74
2022-08-30T02:28:51.723Z,18.73
2022-08-30T02:31:21.139Z,18.71
2022-08-30T02:33:51.191Z,18.70
2022-08-30T02:36:20.789Z,18.60
2022-08-30T02:38:49.678Z,18.49
2022-08-30T02:41:18.071Z,18.52
2022-08-30T02:43:47.798Z,18.53
2022-08-30T02:46:15.842Z,18.43
2022-08-30T02:48:44.170Z,18.32
2022-08-30T02:51:15.173Z,18.26
2022-08-30T02:53:44.547Z,18.30
2022-08-30T02:56:13.403Z,18.32
2022-08-30T02:58:42.621Z,18.21
2022-08-30T03:01:14.258Z,18.18
2022-08-30T03:03:43.808Z,18.13
2022-08-30T03:06:12.277Z,18.19
2022-08-30T03:08:40.411Z,18.13
2022-08-30T03:11:08.698Z,18.15
2022-08-30T03:13:36.658Z,18.19
2022-08-30T03:16:04.689Z,18.21
2022-08-30T03:18:34.260Z,18.19
2022-08-30T03:21:02.224Z,18.20
2022-08-30T03:23:30.155Z,18.22
2022-08-30T03:25:58.573Z,18.21
2022-08-30T03:28:26.615Z,18.18
2022-08-30T03:30:54.752Z,17.98
2022-08-30T03:33:22.714Z,18.02
2022-08-30T03:35:52.131Z,18.01
2022-08-30T03:38:20.199Z,17.97
2022-08-30T03:40:48.275Z,18.01
2022-08-30T03:43:16.255Z,18.05
2022-08-30T03:45:44.824Z,18.05
2022-08-30T03:48:13.047Z,18.09
2022-08-30T03:50:41.517Z,18.12
2022-08-30T03:53:11.058Z,18.16
2022-08-30T03:55:38.950Z,18.18
2022-08-30T03:58:06.819Z,18.20
2022-08-30T04:00:34.774Z,18.16
2022-08-30T04:03:03.078Z,18.18
2022-08-30T04:05:31.080Z,18.05
2022-08-30T04:07:58.860Z,18.04
2022-08-30T04:10:28.053Z,18.02
2022-08-30T04:12:56.681Z,18.00
2022-08-30T04:15:24.446Z,17.96
2022-08-30T04:17:53.787Z,17.95
2022-08-30T04:20:22.266Z,17.91
2022-08-30T04:22:51.335Z,17.86
2022-08-30T04:25:19.433Z,17.88
2022-08-30T04:27:48.899Z,17.84
2022-08-30T04:30:18.572Z,17.86
2022-08-30T04:32:46.739Z,17.87
2022-08-30T04:35:15.432Z,17.81
2022-08-30T04:37:43.197Z,17.72
2022-08-30T04:40:11.906Z,17.70
2022-08-30T04:42:39.742Z,17.67
2022-08-30T04:45:12.457Z,17.68
2022-08-30T04:47:40.294Z,17.69
2022-08-30T04:50:09.306Z,17.69
2022-08-30T04:52:37.154Z,17.73
2022-08-30T04:55:06.397Z,17.71
2022-08-30T04:57:34.290Z,17.78
2022-08-30T05:00:02.010Z,17.83
2022-08-30T05:02:31.464Z,17.87
2022-08-30T05:05:16.474Z,17.91
2022-08-30T05:07:44.227Z,17.90
2022-08-30T05:10:11.959Z,17.87
2022-08-30T05:12:39.728Z,17.86
2022-08-30T05:15:08.809Z,17.87
2022-08-30T05:17:40.237Z,17.86
2022-08-30T05:20:10.320Z,17.87
2022-08-30T05:22:38.753Z,17.87
2022-08-30T05:25:07.603Z,17.82
2022-08-30T05:27:36.817Z,17.82
2022-08-30T05:30:06.202Z,17.85
2022-08-30T05:32:33.971Z,17.80
2022-08-30T05:35:03.258Z,17.80
2022-08-30T05:37:30.978Z,17.84
2022-08-30T05:39:59.307Z,17.86
2022-08-30T05:42:27.063Z,17.87
2022-08-30T05:44:55.903Z,17.90
2022-08-30T05:47:23.961Z,17.99
2022-08-30T05:49:51.949Z,18.01
2022-08-30T05:52:21.187Z,18.05
2022-08-30T05:54:55.200Z,18.09
2022-08-30T05:57:23.444Z,18.08
2022-08-30T05:59:51.236Z,18.11
2022-08-30T06:02:19.107Z,18.08
2022-08-30T06:04:46.838Z,18.06
2022-08-30T06:07:15.888Z,18.08
2022-08-30T06:09:46.345Z,18.19
2022-08-30T06:12:14.058Z,18.32
2022-08-30T06:14:41.983Z,18.45
2022-08-30T06:17:10.633Z,18.57
2022-08-30T06:19:38.345Z,18.68
2022-08-30T06:22:06.508Z,18.74
2022-08-30T06:24:56.432Z,18.75
2022-08-30T06:27:25.353Z,18.65
2022-08-30T06:29:53.706Z,18.63
2022-08-30T06:32:21.392Z,18.62
2022-08-30T06:34:49.740Z,18.65
2022-08-30T06:37:29.118Z,18.66
2022-08-30T06:39:58.456Z,18.65
2022-08-30T06:42:31.895Z,18.70
2022-08-30T06:45:00.724Z,18.72
2022-08-30T06:47:29.101Z,18.74
2022-08-30T06:49:57.205Z,18.77
2022-08-30T06:52:25.177Z,18.82
2022-08-30T06:54:54.384Z,18.90
2022-08-30T06:57:22.365Z,18.94
2022-08-30T06:59:56.652Z,18.92
2022-08-30T07:02:25.992Z,18.92
2022-08-30T07:04:53.767Z,18.99
2022-08-30T07:07:21.560Z,18.96
2022-08-30T07:09:49.276Z,19.05
2022-08-30T07:12:17.577Z,19.03
2022-08-30T07:14:45.294Z,19.16
2022-08-30T07:17:34.732Z,19.28
2022-08-30T07:20:03.318Z,19.38
2022-08-30T07:22:31.094Z,19.42
2022-08-30T07:24:58.856Z,19.39
2022-08-30T07:27:26.835Z,19.48
2022-08-30T07:29:54.660Z,19.62
2022-08-30T07:32:23.763Z,19.73
2022-08-30T07:34:51.777Z,19.75
2022-08-30T07:37:19.609Z,19.83
2022-08-30T07:39:48.171Z,19.83
2022-08-30T07:42:16.260Z,19.91
2022-08-30T07:44:43.965Z,19.98
2022-08-30T07:47:12.130Z,19.94
2022-08-30T07:49:41.250Z,20.04
2022-08-30T07:52:09.225Z,20.16
2022-08-30T07:54:37.042Z,20.26
2022-08-30T07:57:04.835Z,20.30
2022-08-30T07:59:35.615Z,20.24
2022-08-30T08:02:04.659Z,20.22
2022-08-30T08:04:33.192Z,20.33
2022-08-30T08:07:02.620Z,20.32
2022-08-30T08:09:30.518Z,20.42
2022-08-30T08:11:58.278Z,20.49
2022-08-30T08:14:26.166Z,20.59
2022-08-30T08:16:53.909Z,20.69
2022-08-30T08:19:21.662Z,20.73
2022-08-30T08:21:55.708Z,20.79
2022-08-30T08:24:38.849Z,20.86
2022-08-30T08:27:06.984Z,20.94
2022-08-30T08:29:34.798Z,21.00
2022-08-30T08:32:02.701Z,20.97
2022-08-30T08:34:30.518Z,21.02
2022-08-30T08:36:58.233Z,21.03
2022-08-30T08:39:25.964Z,21.14
2022-08-30T08:42:09.213Z,21.23
2022-08-30T08:44:54.353Z,21.39
2022-08-30T08:47:26.688Z,21.51
2022-08-30T08:49:59.295Z,21.59
2022-08-30T08:52:49.421Z,21.64
2022-08-30T08:55:22.176Z,21.68
2022-08-30T08:57:52.388Z,21.67
2022-08-30T09:00:20.595Z,21.67
2022-08-30T09:02:55.853Z,21.75
2022-08-30T09:05:26.937Z,21.82
2022-08-30T09:08:01.690Z,21.89
2022-08-30T09:10:49.512Z,21.98
2022-08-30T09:13:22.717Z,21.94
2022-08-30T09:15:54.819Z,21.93
2022-08-30T09:18:42.019Z,22.12
2022-08-30T09:21:14.619Z,22.21
2022-08-30T09:23:50.549Z,22.30
2022-08-30T09:26:34.089Z,22.40
2022-08-30T09:29:05.134Z,22.39
2022-08-30T09:31:46.960Z,22.48
2022-08-30T09:34:19.759Z,22.54
2022-08-30T09:36:51.407Z,22.59
2022-08-30T09:39:20.952Z,22.72
2022-08-30T09:41:51.067Z,22.83
2022-08-30T09:44:24.092Z,22.93
2022-08-30T09:46:53.811Z,22.96
2022-08-30T09:49:34.075Z,23.07
2022-08-30T09:52:19.252Z,23.04
2022-08-30T09:55:04.188Z,23.07
2022-08-30T09:57:40.787Z,23.04
2022-08-30T10:00:18.451Z,23.14
2022-08-30T10:03:00.027Z,23.25
2022-08-30T10:05:36.389Z,23.20
2022-08-30T10:08:14.389Z,23.29
2022-08-30T10:10:48.831Z,23.46
2022-08-30T10:13:33.784Z,23.61
2022-08-30T10:16:14.880Z,23.65
2022-08-30T10:18:53.211Z,23.74
2022-08-30T10:21:27.443Z,23.89
2022-08-30T10:24:00.128Z,23.96
2022-08-30T10:26:30.764Z,24.00
2022-08-30T10:29:05.170Z,24.10
2022-08-30T10:31:40.789Z,24.10
2022-08-30T10:34:16.056Z,24.21
2022-08-30T10:36:50.070Z,24.26
2022-08-30T10:39:26.741Z,24.00
2022-08-30T10:42:06.299Z,24.10
2022-08-30T10:44:39.289Z,24.19
2022-08-30T10:47:23.818Z,24.28
2022-08-30T10:49:58.635Z,24.34
2022-08-30T10:52:32.363Z,24.27
2022-08-30T10:55:03.630Z,24.29
2022-08-30T10:57:31.632Z,24.27
2022-08-30T11:00:06.018Z,24.29
2022-08-30T11:03:09.818Z,24.47
2022-08-30T11:06:15.512Z,24.65
2022-08-30T11:09:03.223Z,24.62
2022-08-30T11:11:42.905Z,24.56
2022-08-30T11:14:15.281Z,24.51
2022-08-30T11:16:46.795Z,24.45
2022-08-30T11:19:22.340Z,24.52
2022-08-30T11:21:51.974Z,24.64
2022-08-30T11:24:22.460Z,24.76
2022-08-30T11:27:08.204Z,24.82
2022-08-30T11:29:42.326Z,24.87
2022-08-30T11:32:39.101Z,24.87
2022-08-30T11:35:11.181Z,24.76
2022-08-30T11:37:42.491Z,24.75
2022-08-30T11:40:32.928Z,24.84
2022-08-30T11:43:43.075Z,25.06
2022-08-30T11:46:19.471Z,25.11
2022-08-30T11:48:55.238Z,25.09
2022-08-30T11:52:23.899Z,24.98
2022-08-30T11:55:00.110Z,25.02
2022-08-30T11:57:35.289Z,25.12
2022-08-30T12:00:12.073Z,25.17
2022-08-30T12:02:56.397Z,25.20
2022-08-30T12:05:55.082Z,25.35
2022-08-30T12:08:57.898Z,25.45
2022-08-30T12:12:02.485Z,25.43
2022-08-30T12:14:51.992Z,25.39
2022-08-30T12:17:46.002Z,25.53
2022-08-30T12:20:22.607Z,25.65
2022-08-30T12:22:51.862Z,25.65
2022-08-30T12:25:26.351Z,25.61
2022-08-30T12:28:10.761Z,25.54
2022-08-30T12:30:40.993Z,25.54
2022-08-30T12:33:15.287Z,25.45
2022-08-30T12:35:45.494Z,25.39
2022-08-30T12:38:19.277Z,25.37
2022-08-30T12:40:57.986Z,25.54
2022-08-30T12:43:38.908Z,25.67
2022-08-30T12:46:15.384Z,25.82
2022-08-30T12:48:46.929Z,25.87
2022-08-30T12:51:38.209Z,26.05
2022-08-30T12:54:10.042Z,26.05
2022-08-30T12:56:56.223Z,26.11
2022-08-30T12:59:52.943Z,26.21
2022-08-30T13:02:23.782Z,26.31
2022-08-30T13:04:54.691Z,26.43
2022-08-30T13:07:32.647Z,26.55
2022-08-30T13:10:12.012Z,26.53
2022-08-30T13:12:40.478Z,26.48
2022-08-30T13:15:16.552Z,26.39
2022-08-30T13:17:44.523Z,26.37
2022-08-30T13:20:26.023Z,26.18
2022-08-30T13:23:09.245Z,26.25
2022-08-30T13:25:39.399Z,26.27
2022-08-30T13:28:09.154Z,26.39
2022-08-30T13:30:38.483Z,26.45
2022-08-30T13:33:06.449Z,26.44
2022-08-30T13:35:35.893Z,26.45
2022-08-30T13:38:04.291Z,26.36
2022-08-30T13:40:32.526Z,26.34
2022-08-30T13:43:01.067Z,26.29
2022-08-30T13:45:44.447Z,26.27
2022-08-30T13:48:16.116Z,26.27
2022-08-30T13:50:47.139Z,26.29
2022-08-30T13:53:51.216Z,26.32
2022-08-30T13:56:06.408Z,26.48
2022-08-30T13:58:35.356Z,26.61
2022-08-30T14:01:03.524Z,26.66
2022-08-30T14:03:31.496Z,26.53
2022-08-30T14:06:29.299Z,26.50
2022-08-30T14:08:53.541Z,26.57
2022-08-30T14:11:25.780Z,26.65
2022-08-30T14:16:46.578Z,26.34
2022-08-30T14:19:16.689Z,26.36
2022-08-30T14:21:49.152Z,26.40
2022-08-30T14:24:19.904Z,26.57
2022-08-30T14:26:51.497Z,26.69
2022-08-30T14:29:22.867Z,26.78
2022-08-30T14:31:52.432Z,26.76
2022-08-30T14:34:24.145Z,26.67
2022-08-30T14:36:53.933Z,26.56
2022-08-30T14:39:23.441Z,26.63
2022-08-30T14:41:53.711Z,26.67
2022-08-30T14:44:23.597Z,26.57
2022-08-30T14:46:52.040Z,26.45
2022-08-30T14:49:21.897Z,26.22
2022-08-30T14:51:51.504Z,26.22
2022-08-30T14:54:23.559Z,26.22
2022-08-30T14:56:53.850Z,26.28
2022-08-30T14:59:22.798Z,26.33
2022-08-30T15:01:50.856Z,26.38
2022-08-30T15:04:21.438Z,26.39
2022-08-30T15:06:50.923Z,26.33
2022-08-30T15:09:23.751Z,26.32
2022-08-30T15:11:53.508Z,26.31
2022-08-30T15:14:23.694Z,26.34
2022-08-30T15:16:54.535Z,26.32
2022-08-30T15:19:23.210Z,26.23
2022-08-30T15:21:52.044Z,26.20
2022-08-30T15:24:29.287Z,26.24
2022-08-30T15:26:59.539Z,26.20
2022-08-30T15:29:30.581Z,26.24
2022-08-30T15:32:01.304Z,26.24
2022-08-30T15:34:29.914Z,26.23
2022-08-30T15:36:58.771Z,26.30
2022-08-30T15:39:29.171Z,26.35
2022-08-30T15:42:00.978Z,26.39
2022-08-30T15:44:29.458Z,26.40
2022-08-30T15:46:57.436Z,26.35
2022-08-30T15:49:26.021Z,26.30
2022-08-30T15:51:54.721Z,26.06
2022-08-30T15:54:24.908Z,26.07
2022-08-30T15:56:59.607Z,26.06
2022-08-30T15:59:28.865Z,26.04
2022-08-30T16:01:57.886Z,26.04
2022-08-30T16:04:26.276Z,26.00
2022-08-30T16:06:54.358Z,25.96
2022-08-30T16:09:22.772Z,25.92
2022-08-30T16:11:50.727Z,25.84
2022-08-30T16:14:19.841Z,25.90
2022-08-30T16:16:47.702Z,26.01
2022-08-30T16:19:15.921Z,26.08
2022-08-30T16:21:44.111Z,26.13
2022-08-30T16:24:14.184Z,25.90
2022-08-30T16:26:43.455Z,25.89
2022-08-30T16:29:13.102Z,25.89
2022-08-30T16:31:44.603Z,25.78
2022-08-30T16:34:13.714Z,25.76
2022-08-30T16:36:41.493Z,25.74
2022-08-30T16:39:12.670Z,25.72
2022-08-30T16:41:40.968Z,25.68
2022-08-30T16:44:09.182Z,25.58
2022-08-30T16:46:40.289Z,25.59
2022-08-30T16:49:10.619Z,25.50
2022-08-30T16:51:39.406Z,25.38
2022-08-30T16:54:09.000Z,25.36
2022-08-30T16:56:37.855Z,25.36
2022-08-30T16:59:10.861Z,25.23
2022-08-30T17:01:42.136Z,25.15
2022-08-30T17:04:12.987Z,25.19
2022-08-30T17:06:46.439Z,25.21
2022-08-30T17:09:15.136Z,25.22
2022-08-30T17:11:43.495Z,25.16
2022-08-30T17:14:11.377Z,25.14
2022-08-30T17:16:39.537Z,25.04
2022-08-30T17:19:09.441Z,24.97
2022-08-30T17:21:38.837Z,24.95
2022-08-30T17:24:06.992Z,24.87
2022-08-30T17:26:37.217Z,24.82
2022-08-30T17:29:06.183Z,24.70
2022-08-30T17:31:36.079Z,24.67
2022-08-30T17:34:06.214Z,24.59
2022-08-30T17:36:36.395Z,24.61
2022-08-30T17:39:11.033Z,24.58
2022-08-30T17:41:40.027Z,24.57
2022-08-30T17:44:13.550Z,24.54
2022-08-30T17:46:41.387Z,24.50
2022-08-30T17:49:10.456Z,24.41
2022-08-30T17:51:40.827Z,24.45
2022-08-30T17:54:11.965Z,24.45
2022-08-30T17:56:40.110Z,24.45
2022-08-30T18:01:56.412Z,24.48
2022-08-30T18:04:25.322Z,24.41
2022-08-30T18:06:53.399Z,24.41
2022-08-30T18:09:23.031Z,24.38
2022-08-30T18:11:51.647Z,24.17
2022-08-30T18:14:19.829Z,24.04
2022-08-30T18:16:53.522Z,23.95
2022-08-30T18:19:22.863Z,23.91
2022-08-30T18:21:50.668Z,23.89
2022-08-30T18:24:19.046Z,23.90
2022-08-30T18:26:48.322Z,23.89
2022-08-30T18:29:29.486Z,23.80
2022-08-30T18:31:59.480Z,23.75
2022-08-30T18:34:27.338Z,23.68
2022-08-30T18:36:55.094Z,23.72
2022-08-30T18:39:23.015Z,23.75
2022-08-30T18:41:52.872Z,23.70
2022-08-30T18:44:33.225Z,23.72
2022-08-30T18:47:03.933Z,23.67
2022-08-30T18:49:33.987Z,23.57
2022-08-30T18:52:02.284Z,23.55
2022-08-30T18:54:31.141Z,23.51
2022-08-30T18:57:00.276Z,23.50
2022-08-30T18:59:35.279Z,23.38
2022-08-30T19:02:05.332Z,23.30
2022-08-30T19:04:35.731Z,23.33
2022-08-30T19:07:05.914Z,23.24
2022-08-30T19:09:34.631Z,23.25
2022-08-30T19:12:04.218Z,23.29
2022-08-30T19:14:37.258Z,23.21
2022-08-30T19:17:07.136Z,23.11
2022-08-30T19:19:36.868Z,23.10
2022-08-30T19:22:14.046Z,23.09
2022-08-30T19:24:42.638Z,22.99
2022-08-30T19:27:12.597Z,23.00
2022-08-30T19:29:40.596Z,22.99
2022-08-30T19:32:08.398Z,22.95
2022-08-30T19:34:37.987Z,22.93
2022-08-30T19:37:05.845Z,22.86
2022-08-30T19:39:34.595Z,22.88
2022-08-30T19:42:02.583Z,22.76
2022-08-30T19:44:31.682Z,22.78
2022-08-30T19:46:59.875Z,22.80
2022-08-30T19:49:27.562Z,22.72
2022-08-30T19:51:55.388Z,22.62
2022-08-30T19:54:23.077Z,22.61
2022-08-30T19:56:52.045Z,22.60
2022-08-30T19:59:20.393Z,22.59
2022-08-30T20:01:50.608Z,22.57
2022-08-30T20:04:18.571Z,22.49
2022-08-30T20:06:46.300Z,22.48
2022-08-30T20:09:14.247Z,22.40
2022-08-30T20:11:42.841Z,22.36
2022-08-30T20:14:10.997Z,22.31
2022-08-30T20:16:41.513Z,22.26
2022-08-30T20:19:13.694Z,22.19
2022-08-30T20:24:26.361Z,24.47
2022-08-30T20:24:28.981Z,22.14
2022-08-30T20:26:57.429Z,22.05
2022-08-30T20:29:25.207Z,22.02
2022-08-30T20:31:52.930Z,21.99
2022-08-30T20:34:27.239Z,22.04
2022-08-30T20:36:55.338Z,22.01
2022-08-30T20:39:23.873Z,21.99
2022-08-30T20:41:52.134Z,21.95
2022-08-30T20:44:19.911Z,21.93
2022-08-30T20:46:49.454Z,21.95
2022-08-30T20:49:17.540Z,21.90
2022-08-30T20:51:52.299Z,21.93
2022-08-30T20:54:20.815Z,21.83
2022-08-30T20:56:49.968Z,21.78
2022-08-30T20:59:17.811Z,21.73
2022-08-30T21:01:46.018Z,21.73
2022-08-30T21:04:13.882Z,21.67
2022-08-30T21:06:41.706Z,21.63
2022-08-30T21:09:10.769Z,21.71
2022-08-30T21:11:39.306Z,21.67
2022-08-30T21:14:12.666Z,21.69
2022-08-30T21:16:40.442Z,21.69
2022-08-30T21:19:08.311Z,21.63
2022-08-30T21:21:36.059Z,21.59
2022-08-30T21:24:06.771Z,21.59
2022-08-30T21:26:36.279Z,21.51
2022-08-30T21:29:04.899Z,21.49
2022-08-30T21:31:32.744Z,21.49
2022-08-30T21:34:00.651Z,21.44
2022-08-30T21:36:45.883Z,21.39
2022-08-30T21:39:16.900Z,21.38
2022-08-30T21:41:47.160Z,21.32
2022-08-30T21:44:16.664Z,21.30
2022-08-30T21:46:44.648Z,21.25
2022-08-30T21:49:14.823Z,21.26
2022-08-30T21:51:45.118Z,21.17
2022-08-30T21:54:14.857Z,21.18
2022-08-30T21:56:44.752Z,21.08
2022-08-30T21:59:14.209Z,21.06
2022-08-30T22:01:43.533Z,20.98
2022-08-30T22:04:12.808Z,20.97
2022-08-30T22:06:42.715Z,20.92
2022-08-30T22:09:14.427Z,20.85
2022-08-30T22:11:43.527Z,20.86
2022-08-30T22:14:14.635Z,20.84
2022-08-30T22:16:44.617Z,20.83
2022-08-30T22:19:13.135Z,20.84
2022-08-30T22:21:42.825Z,20.77
2022-08-30T22:24:12.388Z,20.74
2022-08-30T22:26:40.838Z,20.67
2022-08-30T22:29:09.819Z,20.62
2022-08-30T22:31:41.511Z,20.59
2022-08-30T22:34:11.073Z,20.58
2022-08-30T22:36:39.363Z,20.60
2022-08-30T22:39:09.724Z,20.62
2022-08-30T22:41:38.567Z,20.55
2022-08-30T22:44:06.578Z,20.51
2022-08-30T22:46:35.905Z,20.48
2022-08-30T22:49:06.777Z,20.38
2022-08-30T22:51:34.910Z,20.40
2022-08-30T22:54:04.621Z,20.39
2022-08-30T22:56:34.831Z,20.41
2022-08-30T22:59:03.437Z,20.33
2022-08-30T23:01:33.232Z,20.25
2022-08-30T23:04:02.113Z,20.20
2022-08-30T23:06:31.698Z,20.22
2022-08-30T23:08:59.439Z,20.18
2022-08-30T23:11:27.490Z,20.19
2022-08-30T23:13:57.323Z,20.23
2022-08-30T23:20:40.016Z,20.09
2022-08-30T23:23:07.994Z,20.04
2022-08-30T23:25:53.280Z,20.08
2022-08-30T23:28:39.783Z,20.04
2022-08-30T23:31:30.092Z,20.07
2022-08-30T23:34:16.407Z,19.88
2022-08-30T23:37:02.059Z,19.88
2022-08-30T23:39:49.324Z,19.91
2022-08-30T23:42:34.863Z,19.92
2022-08-30T23:45:20.239Z,19.85
2022-08-30T23:48:05.494Z,19.88
2022-08-30T23:50:50.638Z,19.78
2022-08-30T23:53:35.725Z,19.79
2022-08-30T23:56:22.365Z,19.81
2022-08-30T23:59:07.779Z,19.82
